createdAt,value
2018-05-24T00:01:19.468Z,22.40
2018-05-24T00:03:47.833Z,22.40
2018-05-24T00:06:16.091Z,22.40
2018-05-24T00:08:44.368Z,22.40
2018-05-24T00:11:13.405Z,22.30
2018-05-24T00:13:41.716Z,22.30
2018-05-24T00:16:09.996Z,22.30
2018-05-24T00:18:38.277Z,22.30
2018-05-24T00:21:06.596Z,22.30
2018-05-24T00:23:34.881Z,22.20
2018-05-24T00:26:03.110Z,22.20
2018-05-24T00:28:31.973Z,22.20
2018-05-24T00:31:00.258Z,22.20
2018-05-24T00:33:28.843Z,22.30
2018-05-24T00:35:57.090Z,22.30
2018-05-24T00:38:26.107Z,22.10
2018-05-24T00:40:54.522Z,22.10
2018-05-24T00:43:23.242Z,22.00
2018-05-24T00:45:51.652Z,22.10
2018-05-24T00:48:19.946Z,22.10
2018-05-24T00:50:48.208Z,22.10
2018-05-24T00:53:16.483Z,22.20
2018-05-24T00:55:45.814Z,22.10
2018-05-24T00:58:14.066Z,22.00
2018-05-24T01:00:43.084Z,22.10
2018-05-24T01:03:11.356Z,22.10
2018-05-24T01:05:40.522Z,22.10
2018-05-24T01:08:08.757Z,22.10
2018-05-24T01:10:37.006Z,22.00
2018-05-24T01:13:06.544Z,22.00
2018-05-24T01:15:34.777Z,22.00
2018-05-24T01:18:03.024Z,21.90
2018-05-24T01:20:31.309Z,21.90
2018-05-24T01:22:59.566Z,21.80
2018-05-24T01:25:28.536Z,21.60
2018-05-24T01:27:57.597Z,21.60
2018-05-24T01:30:25.837Z,21.60
2018-05-24T01:32:54.173Z,21.60
2018-05-24T01:35:22.406Z,21.70
2018-05-24T01:37:51.077Z,21.60
2018-05-24T01:40:19.329Z,21.60
2018-05-24T01:42:47.603Z,21.60
2018-05-24T01:45:15.903Z,21.60
2018-05-24T01:47:45.569Z,21.50
2018-05-24T01:50:13.820Z,21.50
2018-05-24T01:52:42.140Z,21.50
2018-05-24T01:55:11.288Z,21.30
2018-05-24T01:57:40.309Z,21.30
2018-05-24T02:00:08.561Z,21.30
2018-05-24T02:02:37.583Z,21.40
2018-05-24T02:05:05.849Z,21.30
2018-05-24T02:07:34.109Z,21.40
2018-05-24T02:10:03.106Z,21.40
2018-05-24T02:12:32.122Z,21.50
2018-05-24T02:15:00.393Z,21.40
2018-05-24T02:17:29.407Z,21.40
2018-05-24T02:19:58.013Z,21.40
2018-05-24T02:22:26.331Z,21.40
2018-05-24T02:24:54.576Z,21.30
2018-05-24T02:27:22.847Z,21.20
2018-05-24T02:29:51.127Z,21.10
2018-05-24T02:32:20.131Z,20.90
2018-05-24T02:34:48.400Z,20.90
2018-05-24T02:37:16.619Z,21.00
2018-05-24T02:39:44.889Z,21.00
2018-05-24T02:42:13.142Z,20.80
2018-05-24T02:44:41.393Z,21.00
2018-05-24T02:47:10.431Z,20.90
2018-05-24T02:49:38.694Z,21.00
2018-05-24T02:52:06.973Z,20.80
2018-05-24T02:54:35.206Z,20.80
2018-05-24T02:57:03.468Z,20.40
2018-05-24T02:59:32.519Z,21.00
2018-05-24T03:02:01.640Z,21.00
2018-05-24T03:04:29.875Z,21.00
2018-05-24T03:06:58.149Z,21.00
2018-05-24T03:09:26.381Z,21.00
2018-05-24T03:11:54.607Z,20.90
2018-05-24T03:14:22.984Z,20.90
2018-05-24T03:16:51.116Z,21.00
2018-05-24T03:19:19.386Z,20.90
2018-05-24T03:21:48.381Z,20.60
2018-05-24T03:24:17.000Z,20.90
2018-05-24T03:26:45.268Z,20.90
2018-05-24T03:29:13.514Z,20.90
2018-05-24T03:31:42.537Z,20.60
2018-05-24T03:34:10.792Z,20.80
2018-05-24T03:36:39.799Z,20.90
2018-05-24T03:39:08.836Z,20.90
2018-05-24T03:41:37.076Z,20.70
2018-05-24T03:44:06.087Z,20.80
2018-05-24T03:46:34.331Z,20.60
2018-05-24T03:49:02.684Z,20.60
2018-05-24T03:51:30.859Z,20.70
2018-05-24T03:53:59.120Z,20.70
2018-05-24T03:56:27.387Z,20.70
2018-05-24T04:02:10.469Z,20.70
2018-05-24T04:04:50.484Z,20.60
2018-05-24T04:07:18.751Z,20.60
2018-05-24T04:09:47.000Z,20.40
2018-05-24T04:12:16.019Z,20.40
2018-05-24T04:14:45.537Z,20.40
2018-05-24T04:17:13.893Z,20.20
2018-05-24T04:19:42.914Z,20.30
2018-05-24T04:22:11.172Z,20.30
2018-05-24T04:24:40.177Z,20.40
2018-05-24T04:27:09.219Z,20.30
2018-05-24T04:29:37.569Z,20.30
2018-05-24T04:32:05.841Z,20.40
2018-05-24T04:34:35.065Z,20.20
2018-05-24T04:37:03.293Z,20.30
2018-05-24T04:39:32.314Z,20.10
2018-05-24T04:42:01.351Z,20.20
2018-05-24T04:44:29.615Z,20.20
2018-05-24T04:46:57.907Z,20.20
2018-05-24T04:49:27.197Z,20.20
2018-05-24T04:51:55.676Z,20.20
2018-05-24T04:54:23.905Z,20.30
2018-05-24T04:56:52.178Z,20.30
2018-05-24T04:59:20.432Z,20.40
2018-05-24T05:01:48.699Z,20.50
2018-05-24T05:04:16.952Z,20.60
2018-05-24T05:06:45.241Z,20.30
2018-05-24T05:09:14.245Z,19.90
2018-05-24T05:11:42.499Z,20.20
2018-05-24T05:14:10.757Z,20.20
2018-05-24T05:16:39.013Z,20.10
2018-05-24T05:19:07.280Z,20.30
2018-05-24T05:21:35.567Z,20.40
2018-05-24T05:24:03.811Z,20.40
2018-05-24T05:26:32.847Z,20.30
2018-05-24T05:29:01.095Z,20.20
2018-05-24T05:31:30.122Z,20.00
2018-05-24T05:33:58.354Z,20.00
2018-05-24T05:36:26.629Z,19.70
2018-05-24T05:38:56.410Z,19.20
2018-05-24T05:41:24.657Z,19.20
2018-05-24T05:43:52.937Z,19.40
2018-05-24T05:46:21.171Z,19.30
2018-05-24T05:48:51.670Z,19.40
2018-05-24T05:51:21.480Z,19.20
2018-05-24T05:53:49.757Z,19.30
2018-05-24T05:56:18.111Z,19.00
2018-05-24T05:58:46.493Z,19.00
2018-05-24T06:01:15.528Z,19.20
2018-05-24T06:03:43.811Z,19.20
2018-05-24T06:06:12.054Z,19.40
2018-05-24T06:08:41.108Z,19.40
2018-05-24T06:11:09.353Z,19.30
2018-05-24T06:13:37.626Z,19.80
2018-05-24T06:16:05.879Z,19.80
2018-05-24T06:18:34.940Z,19.60
2018-05-24T06:21:03.194Z,19.60
2018-05-24T06:23:31.460Z,19.40
2018-05-24T06:26:00.499Z,19.50
2018-05-24T06:28:28.801Z,19.70
2018-05-24T06:30:57.106Z,19.60
2018-05-24T06:33:26.139Z,19.60
2018-05-24T06:35:54.453Z,19.70
2018-05-24T06:38:22.845Z,19.80
2018-05-24T06:40:51.226Z,19.80
2018-05-24T06:43:19.468Z,19.70
2018-05-24T06:45:47.705Z,19.70
2018-05-24T06:48:15.961Z,19.90
2018-05-24T06:50:44.271Z,19.90
2018-05-24T06:53:12.551Z,20.50
2018-05-24T06:55:40.782Z,20.60
2018-05-24T06:58:09.095Z,20.50
2018-05-24T07:00:37.381Z,20.50
2018-05-24T07:03:05.605Z,20.90
2018-05-24T07:05:34.689Z,21.20
2018-05-24T07:08:03.714Z,21.30
2018-05-24T07:10:31.958Z,21.30
2018-05-24T07:13:00.994Z,21.60
2018-05-24T07:15:29.237Z,21.60
2018-05-24T07:17:58.273Z,21.50
2018-05-24T07:20:26.531Z,21.50
2018-05-24T07:22:55.421Z,21.60
2018-05-24T07:25:24.450Z,20.60
2018-05-24T07:27:52.713Z,20.90
2018-05-24T07:30:20.972Z,20.90
2018-05-24T07:32:49.995Z,20.70
2018-05-24T07:35:18.242Z,20.70
2018-05-24T07:37:47.246Z,20.60
2018-05-24T07:40:16.312Z,20.40
2018-05-24T07:42:44.554Z,20.40
2018-05-24T07:45:12.802Z,20.30
2018-05-24T07:47:41.054Z,20.10
2018-05-24T07:50:09.301Z,20.20
2018-05-24T07:52:37.556Z,20.30
2018-05-24T07:55:05.817Z,20.30
2018-05-24T07:57:34.848Z,20.40
2018-05-24T08:00:03.106Z,20.40
2018-05-24T08:02:32.121Z,20.10
2018-05-24T08:05:00.425Z,20.30
2018-05-24T08:07:28.713Z,20.10
2018-05-24T08:09:56.973Z,20.30
2018-05-24T08:12:25.228Z,20.20
2018-05-24T08:14:54.233Z,20.10
2018-05-24T08:17:22.489Z,20.50
2018-05-24T08:19:51.493Z,20.50
2018-05-24T08:22:20.531Z,20.70
2018-05-24T08:24:48.810Z,20.80
2018-05-24T08:27:17.074Z,20.80
2018-05-24T08:29:45.333Z,20.90
2018-05-24T08:32:14.344Z,20.80
2018-05-24T08:34:42.624Z,21.00
2018-05-24T08:37:10.892Z,20.90
2018-05-24T08:39:39.923Z,20.70
2018-05-24T08:42:08.165Z,20.90
2018-05-24T08:44:36.487Z,20.80
2018-05-24T08:47:04.832Z,21.00
2018-05-24T08:49:33.017Z,21.10
2018-05-24T08:52:02.021Z,21.00
2018-05-24T08:54:30.301Z,21.00
2018-05-24T08:56:59.306Z,21.10
2018-05-24T08:59:27.642Z,21.20
2018-05-24T09:01:55.893Z,21.20
2018-05-24T09:04:24.160Z,21.00
2018-05-24T09:06:52.413Z,21.30
2018-05-24T09:09:21.445Z,21.40
2018-05-24T09:11:49.691Z,21.00
2018-05-24T09:14:18.708Z,21.60
2018-05-24T09:16:47.004Z,21.50
2018-05-24T09:19:15.236Z,21.60
2018-05-24T09:21:43.508Z,21.60
2018-05-24T09:24:11.748Z,21.60
2018-05-24T09:26:40.012Z,21.60
2018-05-24T09:29:08.296Z,21.60
2018-05-24T09:31:36.567Z,21.60
2018-05-24T09:34:04.811Z,21.60
2018-05-24T09:36:33.078Z,21.60
2018-05-24T09:39:02.121Z,21.70
2018-05-24T09:41:30.383Z,21.70
2018-05-24T09:43:59.424Z,21.80
2018-05-24T09:46:27.676Z,21.70
2018-05-24T09:48:55.958Z,21.80
2018-05-24T09:51:24.998Z,21.70
2018-05-24T09:53:53.259Z,21.70
2018-05-24T09:56:21.483Z,21.70
2018-05-24T09:58:49.741Z,21.70
2018-05-24T10:01:18.026Z,21.80
2018-05-24T10:03:47.828Z,21.80
2018-05-24T10:06:16.076Z,21.90
2018-05-24T10:08:44.453Z,21.80
2018-05-24T10:11:13.472Z,21.90
2018-05-24T10:13:41.757Z,21.90
2018-05-24T10:16:10.034Z,22.00
2018-05-24T10:18:38.317Z,22.00
2018-05-24T10:21:06.548Z,22.10
2018-05-24T10:23:34.891Z,22.10
2018-05-24T10:26:03.884Z,22.50
2018-05-24T10:28:32.148Z,22.40
2018-05-24T10:31:00.406Z,22.40
2018-05-24T10:33:29.435Z,22.70
2018-05-24T10:35:57.717Z,22.70
2018-05-24T10:38:26.009Z,22.70
2018-05-24T10:40:54.248Z,22.70
2018-05-24T10:43:22.505Z,22.70
2018-05-24T10:45:50.793Z,22.80
2018-05-24T10:48:19.956Z,22.80
2018-05-24T10:50:48.240Z,22.80
2018-05-24T10:53:16.480Z,22.70
2018-05-24T10:55:44.764Z,22.80
2018-05-24T10:58:13.772Z,22.60
2018-05-24T11:00:42.106Z,22.60
2018-05-24T11:03:11.989Z,22.60
2018-05-24T11:05:40.100Z,22.60
2018-05-24T11:08:08.355Z,22.70
2018-05-24T11:10:36.635Z,22.80
2018-05-24T11:13:04.899Z,22.80
2018-05-24T11:15:33.140Z,22.90
2018-05-24T11:18:01.410Z,22.90
2018-05-24T11:20:30.559Z,22.80
2018-05-24T11:22:58.796Z,22.80
2018-05-24T11:25:27.100Z,22.70
2018-05-24T11:27:55.362Z,22.70
2018-05-24T11:30:24.372Z,22.80
2018-05-24T11:32:52.644Z,22.80
2018-05-24T11:35:21.704Z,22.70
2018-05-24T11:37:49.950Z,22.70
2018-05-24T11:40:18.222Z,22.70
2018-05-24T11:42:46.487Z,22.70
2018-05-24T11:45:15.530Z,23.00
2018-05-24T11:47:43.798Z,23.00
2018-05-24T11:50:12.056Z,23.20
2018-05-24T11:52:40.292Z,23.30
2018-05-24T11:55:08.931Z,23.40
2018-05-24T11:57:42.831Z,23.50
2018-05-24T12:00:11.061Z,23.60
2018-05-24T12:02:45.978Z,23.60
2018-05-24T12:05:22.371Z,23.50
2018-05-24T12:07:51.428Z,23.40
2018-05-24T12:10:19.729Z,23.50
2018-05-24T12:12:47.993Z,23.60
2018-05-24T12:15:16.538Z,23.70
2018-05-24T12:17:44.832Z,23.80
2018-05-24T12:20:13.829Z,23.80
2018-05-24T12:22:42.831Z,23.70
2018-05-24T12:25:11.092Z,23.60
2018-05-24T12:27:40.437Z,23.50
2018-05-24T12:30:08.678Z,23.50
2018-05-24T12:32:37.678Z,23.40
2018-05-24T12:35:06.699Z,23.40
2018-05-24T12:37:34.978Z,23.40
2018-05-24T12:40:03.228Z,23.40
2018-05-24T12:42:31.499Z,23.30
2018-05-24T12:44:59.828Z,23.30
2018-05-24T12:47:28.072Z,23.30
2018-05-24T12:49:57.077Z,23.10
2018-05-24T12:52:26.119Z,23.00
2018-05-24T12:54:54.345Z,22.90
2018-05-24T12:57:24.007Z,22.80
2018-05-24T12:59:52.260Z,22.70
2018-05-24T13:02:21.298Z,22.70
2018-05-24T13:04:49.712Z,22.70
2018-05-24T13:07:18.006Z,22.80
2018-05-24T13:09:47.029Z,22.70
2018-05-24T13:12:15.260Z,22.70
2018-05-24T13:14:44.169Z,22.70
2018-05-24T13:17:12.420Z,22.80
2018-05-24T13:19:40.676Z,22.80
2018-05-24T13:22:08.940Z,22.90
2018-05-24T13:24:37.280Z,22.80
2018-05-24T13:27:06.228Z,23.00
2018-05-24T13:29:34.464Z,23.00
2018-05-24T13:32:02.720Z,23.00
2018-05-24T13:34:30.980Z,23.10
2018-05-24T13:36:59.230Z,23.10
2018-05-24T13:39:27.491Z,23.10
2018-05-24T13:41:56.488Z,23.10
2018-05-24T13:44:25.586Z,23.10
2018-05-24T13:46:53.829Z,23.10
2018-05-24T13:49:22.076Z,23.00
2018-05-24T13:51:50.326Z,23.10
2018-05-24T13:54:18.599Z,23.10
2018-05-24T13:56:46.850Z,23.10
2018-05-24T13:59:15.117Z,23.20
2018-05-24T14:01:43.361Z,23.20
2018-05-24T14:04:12.376Z,23.20
2018-05-24T14:06:40.614Z,23.20
2018-05-24T14:09:08.903Z,23.30
2018-05-24T14:11:37.131Z,23.30
2018-05-24T14:14:05.409Z,23.50
2018-05-24T14:16:33.635Z,23.40
2018-05-24T14:19:01.896Z,23.50
2018-05-24T14:21:30.134Z,23.40
2018-05-24T14:23:58.433Z,23.40
2018-05-24T14:26:26.681Z,23.40
2018-05-24T14:28:55.708Z,23.50
2018-05-24T14:31:23.964Z,23.40
2018-05-24T14:33:52.243Z,23.50
2018-05-24T14:36:20.505Z,23.60
2018-05-24T14:38:48.738Z,23.60
2018-05-24T14:41:16.963Z,23.70
2018-05-24T14:43:45.992Z,23.60
2018-05-24T14:46:14.255Z,23.60
2018-05-24T14:48:43.273Z,23.60
2018-05-24T14:51:11.517Z,23.50
2018-05-24T14:53:39.918Z,23.60
2018-05-24T14:56:08.932Z,23.40
2018-05-24T14:58:37.183Z,23.40
2018-05-24T15:01:06.202Z,23.40
2018-05-24T15:03:35.225Z,23.30
2018-05-24T15:06:03.542Z,23.30
2018-05-24T15:08:31.813Z,23.30
2018-05-24T15:11:00.069Z,23.30
2018-05-24T15:13:40.251Z,23.40
2018-05-24T15:16:08.498Z,23.80
2018-05-24T15:18:36.798Z,23.70
2018-05-24T15:21:05.020Z,23.80
2018-05-24T15:23:34.055Z,23.70
2018-05-24T15:26:02.315Z,23.70
2018-05-24T15:28:31.296Z,23.70
2018-05-24T15:31:00.336Z,23.60
2018-05-24T15:33:28.610Z,23.60
2018-05-24T15:35:56.880Z,23.60
2018-05-24T15:38:25.134Z,23.60
2018-05-24T15:40:54.166Z,23.60
2018-05-24T15:43:22.431Z,23.60
2018-05-24T15:45:51.256Z,23.60
2018-05-24T15:48:20.029Z,23.60
2018-05-24T15:50:49.039Z,23.80
2018-05-24T15:53:17.286Z,23.80
2018-05-24T15:55:45.586Z,24.00
2018-05-24T15:58:13.869Z,24.20
2018-05-24T16:00:42.192Z,24.10
2018-05-24T16:03:10.403Z,24.10
2018-05-24T16:05:39.436Z,24.00
2018-05-24T16:08:08.200Z,24.00
2018-05-24T16:10:36.798Z,23.90
2018-05-24T16:13:05.233Z,23.90
2018-05-24T16:15:33.498Z,23.80
2018-05-24T16:18:01.753Z,23.70
2018-05-24T16:20:30.040Z,23.70
2018-05-24T16:22:58.286Z,23.70
2018-05-24T16:25:27.337Z,23.60
2018-05-24T16:27:55.598Z,23.60
2018-05-24T16:30:23.875Z,23.70
2018-05-24T16:32:52.135Z,23.70
2018-05-24T16:35:21.177Z,23.60
2018-05-24T16:37:49.431Z,23.60
2018-05-24T16:40:18.402Z,23.90
2018-05-24T16:42:46.704Z,24.20
2018-05-24T16:45:14.992Z,24.30
2018-05-24T16:47:43.269Z,24.10
2018-05-24T16:50:11.540Z,24.00
2018-05-24T16:52:39.788Z,23.80
2018-05-24T16:55:08.064Z,23.70
2018-05-24T16:57:36.313Z,23.60
2018-05-24T17:00:04.596Z,23.60
2018-05-24T17:02:32.855Z,23.60
2018-05-24T17:05:01.132Z,23.70
2018-05-24T17:07:29.376Z,23.70
2018-05-24T17:09:58.475Z,24.00
2018-05-24T17:12:26.775Z,24.00
2018-05-24T17:14:54.990Z,24.20
2018-05-24T17:17:23.269Z,24.40
2018-05-24T17:19:51.525Z,24.70
2018-05-24T17:22:19.802Z,24.40
2018-05-24T17:24:48.064Z,24.30
2018-05-24T17:27:16.300Z,24.20
2018-05-24T17:29:44.551Z,24.20
2018-05-24T17:32:12.784Z,24.00
2018-05-24T17:34:41.855Z,23.80
2018-05-24T17:37:10.157Z,23.80
2018-05-24T17:39:38.393Z,23.70
2018-05-24T17:42:06.664Z,23.60
2018-05-24T17:44:34.912Z,23.50
2018-05-24T17:47:03.956Z,23.60
2018-05-24T17:49:32.206Z,23.60
2018-05-24T17:52:01.290Z,23.90
2018-05-24T17:54:30.316Z,24.20
2018-05-24T17:56:58.580Z,24.20
2018-05-24T17:59:27.573Z,23.80
2018-05-24T18:01:56.615Z,23.70
2018-05-24T18:04:24.857Z,23.70
2018-05-24T18:06:53.899Z,23.60
2018-05-24T18:09:22.138Z,23.60
2018-05-24T18:11:51.480Z,23.60
2018-05-24T18:14:19.736Z,23.60
2018-05-24T18:16:48.776Z,23.60
2018-05-24T18:19:17.022Z,23.50
2018-05-24T18:21:45.286Z,23.60
2018-05-24T18:24:14.283Z,23.60
2018-05-24T18:26:42.549Z,23.60
2018-05-24T18:29:11.559Z,23.50
2018-05-24T18:31:39.845Z,23.50
2018-05-24T18:34:08.848Z,23.50
2018-05-24T18:36:37.093Z,23.50
2018-05-24T18:39:06.148Z,23.50
2018-05-24T18:41:34.421Z,23.50
2018-05-24T18:44:02.650Z,23.50
2018-05-24T18:46:30.958Z,23.50
2018-05-24T18:48:59.217Z,23.50
2018-05-24T18:51:29.494Z,23.50
2018-05-24T18:53:57.770Z,23.50
2018-05-24T18:56:26.018Z,23.50
2018-05-24T18:58:55.225Z,23.40
2018-05-24T19:01:23.493Z,23.40
2018-05-24T19:03:52.508Z,23.30
2018-05-24T19:06:20.764Z,23.30
2018-05-24T19:08:49.066Z,23.40
2018-05-24T19:11:17.344Z,23.30
2018-05-24T19:13:46.393Z,23.30
2018-05-24T19:16:14.651Z,23.30
2018-05-24T19:18:42.916Z,23.20
2018-05-24T19:21:11.184Z,23.10
2018-05-24T19:23:39.456Z,23.20
2018-05-24T19:26:08.487Z,23.30
2018-05-24T19:28:36.751Z,23.20
2018-05-24T19:31:05.032Z,23.30
2018-05-24T19:33:34.052Z,23.40
2018-05-24T19:36:02.343Z,23.40
2018-05-24T19:38:30.578Z,23.40
2018-05-24T19:40:58.876Z,23.30
2018-05-24T19:43:27.130Z,23.30
2018-05-24T19:45:55.375Z,23.30
2018-05-24T19:48:23.676Z,23.30
2018-05-24T19:50:51.934Z,23.30
2018-05-24T19:53:20.181Z,23.30
2018-05-24T19:55:48.483Z,23.20
2018-05-24T19:58:17.478Z,23.20
2018-05-24T20:00:45.767Z,23.20
2018-05-24T20:03:14.184Z,23.20
2018-05-24T20:05:42.431Z,23.20
2018-05-24T20:08:10.720Z,23.10
2018-05-24T20:10:38.994Z,23.00
2018-05-24T20:13:07.252Z,23.00
2018-05-24T20:15:35.528Z,23.10
2018-05-24T20:18:03.820Z,23.10
2018-05-24T20:20:32.061Z,23.10
2018-05-24T20:23:01.127Z,23.10
2018-05-24T20:25:29.369Z,23.10
2018-05-24T20:27:57.644Z,23.00
2018-05-24T20:30:25.891Z,23.00
2018-05-24T20:32:54.955Z,22.90
2018-05-24T20:35:23.339Z,22.90
2018-05-24T20:37:51.608Z,22.80
2018-05-24T20:40:19.917Z,22.70
2018-05-24T20:42:48.189Z,22.80
2018-05-24T20:45:16.488Z,22.70
2018-05-24T20:47:44.795Z,22.80
2018-05-24T20:50:13.067Z,22.90
2018-05-24T20:52:42.233Z,23.00
2018-05-24T20:55:10.524Z,23.00
2018-05-24T20:57:38.862Z,22.90
2018-05-24T21:00:07.132Z,22.90
2018-05-24T21:02:36.139Z,22.90
2018-05-24T21:05:04.522Z,22.90
2018-05-24T21:07:33.391Z,22.90
2018-05-24T21:10:01.921Z,23.00
2018-05-24T21:12:30.177Z,22.90
2018-05-24T21:14:58.593Z,22.90
2018-05-24T21:17:26.868Z,22.90
2018-05-24T21:19:55.168Z,23.00
2018-05-24T21:22:23.521Z,23.00
2018-05-24T21:24:51.820Z,23.00
2018-05-24T21:27:20.475Z,22.90
2018-05-24T21:29:48.903Z,22.80
2018-05-24T21:32:17.190Z,22.80
2018-05-24T21:34:45.426Z,22.80
2018-05-24T21:37:13.734Z,22.70
2018-05-24T21:39:41.993Z,22.80
2018-05-24T21:42:10.282Z,22.80
2018-05-24T21:44:38.545Z,22.80
2018-05-24T21:47:06.806Z,22.80
2018-05-24T21:49:35.835Z,22.60
2018-05-24T21:52:04.102Z,22.60
2018-05-24T21:54:32.392Z,22.40
2018-05-24T21:57:00.656Z,22.20
2018-05-24T21:59:28.916Z,22.00
2018-05-24T22:01:57.957Z,21.90
2018-05-24T22:04:26.235Z,21.80
2018-05-24T22:06:54.494Z,21.90
2018-05-24T22:09:22.768Z,21.80
2018-05-24T22:11:51.783Z,22.00
2018-05-24T22:14:20.049Z,22.00
2018-05-24T22:16:48.324Z,22.20
2018-05-24T22:19:17.344Z,22.20
2018-05-24T22:21:45.597Z,22.20
2018-05-24T22:24:14.632Z,22.20
2018-05-24T22:26:43.037Z,22.20
2018-05-24T22:29:11.292Z,22.20
2018-05-24T22:31:39.546Z,22.30
2018-05-24T22:34:07.844Z,22.30
2018-05-24T22:36:36.097Z,22.20
2018-05-24T22:39:05.822Z,22.00
2018-05-24T22:41:34.088Z,21.90
2018-05-24T22:44:03.096Z,22.00
2018-05-24T22:46:31.386Z,22.00
2018-05-24T22:48:59.627Z,22.10
2018-05-24T22:51:27.903Z,22.20
2018-05-24T22:53:56.164Z,22.30
2018-05-24T22:56:24.441Z,22.30
2018-05-24T22:58:52.720Z,22.30
2018-05-24T23:01:20.983Z,22.30
2018-05-24T23:03:49.869Z,22.20
2018-05-24T23:06:18.254Z,22.20
2018-05-24T23:08:46.528Z,22.20
2018-05-24T23:11:14.797Z,22.10
2018-05-24T23:13:43.791Z,22.20
2018-05-24T23:16:12.063Z,22.20
2018-05-24T23:18:41.089Z,22.20
2018-05-24T23:21:09.344Z,22.20
2018-05-24T23:23:38.372Z,22.20
2018-05-24T23:26:06.639Z,21.80
2018-05-24T23:28:34.901Z,22.20
2018-05-24T23:31:03.911Z,21.90
2018-05-24T23:33:32.170Z,22.10
2018-05-24T23:36:01.179Z,22.00
2018-05-24T23:38:29.461Z,22.00
2018-05-24T23:40:57.716Z,21.90
2018-05-24T23:43:25.993Z,21.90
2018-05-24T23:45:54.248Z,21.90
2018-05-24T23:48:22.520Z,21.90
2018-05-24T23:50:50.887Z,22.00
2018-05-24T23:53:19.160Z,22.00
2018-05-24T23:55:47.434Z,21.90
2018-05-24T23:58:15.685Z,21.90
